Time;durP1;ratioP1;P1;durP2;ratioP2;P2;SDS_P1;SDS_P2;PMS_P1;PMS_P2;Temp;Humidity;BMP_temperature;BMP_pressure;BME280_temperature;BME280_humidity;BME280_pressure;Samples;Min_cycle;Max_cycle;Signal;HPM_P1;HPM_P2
2022/08/05 00:02:10;;;;;;;0.00;0.00;;;;;;;22.78;54.56;101665.59;5075511;28;20073;-84
2022/08/05 00:04:36;;;;;;;0.10;0.10;;;;;;;22.77;54.60;101661.16;5075747;28;20028;-84
2022/08/05 00:07:02;;;;;;;0.10;0.10;;;;;;;22.77;55.00;101668.41;5079235;28;20505;-84
2022/08/05 00:09:29;;;;;;;0.00;0.00;;;;;;;22.73;55.78;101666.81;5078910;28;20043;-85
2022/08/05 00:11:55;;;;;;;0.10;0.10;;;;;;;22.74;54.86;101669.44;5076081;28;20024;-85
2022/08/05 00:14:22;;;;;;;0.10;0.10;;;;;;;22.72;54.81;101671.34;5076677;28;20028;-85
2022/08/05 00:16:48;;;;;;;0.10;0.10;;;;;;;22.71;55.78;101669.59;5076642;28;20651;-84
2022/08/05 00:19:14;;;;;;;0.08;0.08;;;;;;;22.70;55.78;101667.00;5076977;28;20100;-85
2022/08/05 00:21:40;;;;;;;0.35;0.35;;;;;;;22.68;55.35;101663.50;5077972;28;20024;-85
2022/08/05 00:24:07;;;;;;;0.65;0.65;;;;;;;22.66;55.01;101662.75;5077569;28;20028;-85
2022/08/05 00:26:33;;;;;;;0.10;0.10;;;;;;;22.61;55.36;101661.16;5077329;28;20032;-84
2022/08/05 00:29:02;;;;;;;1.00;0.85;;;;;;;22.62;55.63;101668.31;5077935;28;20040;-83
2022/08/05 00:31:28;;;;;;;3.20;1.25;;;;;;;22.62;55.44;101665.63;5078053;28;20021;-84
2022/08/05 00:33:54;;;;;;;0.10;0.10;;;;;;;22.65;55.82;101666.41;5078616;28;20039;-84
2022/08/05 00:36:22;;;;;;;0.10;0.10;;;;;;;22.64;55.78;101659.25;5076237;28;20028;-84
2022/08/05 00:38:49;;;;;;;0.10;0.10;;;;;;;22.65;55.12;101661.00;5076394;28;20025;-84
2022/08/05 00:41:28;;;;;;;0.28;0.28;;;;;;;22.67;54.66;101659.94;5075688;28;20078;-84
2022/08/05 00:43:55;;;;;;;0.03;0.03;;;;;;;22.53;55.55;101665.28;5076048;28;20035;-84
2022/08/05 00:46:21;;;;;;;0.40;0.40;;;;;;;22.57;55.44;101661.47;5074496;28;20028;-84
2022/08/05 00:48:48;;;;;;;10.13;0.70;;;;;;;22.57;54.96;101658.75;5075782;28;20029;-84
2022/08/05 00:51:17;;;;;;;0.20;0.20;;;;;;;22.52;55.51;101669.81;5073978;28;20021;-84
2022/08/05 00:53:43;;;;;;;0.10;0.10;;;;;;;22.45;55.33;101655.81;5074478;28;20028;-84
2022/08/05 00:56:09;;;;;;;0.00;0.00;;;;;;;22.44;54.98;101658.56;5078435;28;20062;-82
2022/08/05 00:58:36;;;;;;;0.00;0.00;;;;;;;22.40;55.36;101662.41;5085018;28;20483;-84
2022/08/05 01:01:02;;;;;;;0.00;0.00;;;;;;;22.41;55.14;101664.16;5080082;28;20087;-84
2022/08/05 01:03:29;;;;;;;0.10;0.10;;;;;;;22.40;54.94;101671.38;5081295;28;20037;-84
2022/08/05 01:09:18;;;;;;;0.08;0.08;;;;;;;22.34;54.66;101660.88;5079735;28;20509;-83
2022/08/05 01:11:48;;;;;;;0.10;0.10;;;;;;;22.32;55.16;101678.13;5078110;28;20020;-84
2022/08/05 01:22:53;;;;;;;0.20;0.20;;;;;;;22.29;55.15;101695.38;5072132;28;20893;-83
2022/08/05 01:30:49;;;;;;;0.10;0.10;;;;;;;22.33;54.74;101707.75;5003488;27;4049472;-83
2022/08/05 01:33:17;;;;;;;0.05;0.05;;;;;;;22.26;54.66;101711.75;5133340;27;20035;-83
2022/08/05 01:35:46;;;;;;;0.10;0.10;;;;;;;22.20;54.75;101718.34;5133391;27;20027;-83
2022/08/05 01:38:14;;;;;;;0.00;0.00;;;;;;;22.15;55.04;101717.75;5133985;27;20031;-82
2022/08/05 01:40:41;;;;;;;0.10;0.10;;;;;;;22.12;54.94;101712.53;5134747;27;20031;-83
2022/08/05 01:43:10;;;;;;;0.00;0.00;;;;;;;22.11;55.67;101719.72;5136004;27;20023;-82
2022/08/05 01:45:37;;;;;;;0.10;0.10;;;;;;;22.14;55.54;101718.69;5135507;27;20027;-84
2022/08/05 01:48:07;;;;;;;0.10;0.10;;;;;;;22.13;56.16;101723.22;5133200;27;20023;-82
2022/08/05 01:50:39;;;;;;;0.10;0.10;;;;;;;22.15;55.62;101720.44;5133340;27;20023;-82
2022/08/05 01:53:10;;;;;;;0.10;0.10;;;;;;;22.09;55.89;101720.78;5133182;27;20053;-83
2022/08/05 01:55:38;;;;;;;0.65;0.65;;;;;;;22.07;56.08;101701.09;5133876;27;20478;-83
2022/08/05 01:58:06;;;;;;;0.10;0.10;;;;;;;22.08;56.04;101694.75;5133933;27;20426;-83
2022/08/05 02:00:37;;;;;;;0.00;0.00;;;;;;;22.09;56.97;101709.97;5133966;27;20042;-82
2022/08/05 02:03:15;;;;;;;0.05;0.05;;;;;;;22.11;56.46;101697.28;5134647;27;20054;-82
2022/08/05 02:05:43;;;;;;;0.10;0.10;;;;;;;22.08;56.77;101687.53;5135798;28;20033;-83
2022/08/05 02:08:10;;;;;;;0.00;0.00;;;;;;;22.02;56.29;101678.88;5133001;27;20027;-83
2022/08/05 02:10:43;;;;;;;0.88;0.88;;;;;;;22.02;56.61;101682.47;5133559;27;20023;-82
2022/08/05 02:13:38;;;;;;;0.10;0.10;;;;;;;22.03;56.31;101678.81;5133245;27;20031;-82
2022/08/05 02:16:13;;;;;;;0.00;0.00;;;;;;;21.93;56.26;101681.16;5133793;27;20151;-82
2022/08/05 02:18:48;;;;;;;0.20;0.20;;;;;;;21.89;56.70;101676.84;5133196;27;20030;-83
2022/08/05 02:21:18;;;;;;;0.00;0.00;;;;;;;21.86;56.45;101670.75;5132396;27;20038;-82
2022/08/05 02:23:48;;;;;;;0.10;0.10;;;;;;;21.79;56.23;101681.03;5132936;27;20030;-82
2022/08/05 02:26:20;;;;;;;0.10;0.10;;;;;;;21.76;56.39;101676.66;5132894;27;20031;-82
2022/08/05 02:28:48;;;;;;;0.20;0.20;;;;;;;21.77;56.49;101678.41;5132624;27;20054;-83
2022/08/05 02:31:20;;;;;;;4.22;1.92;;;;;;;21.69;57.11;101675.25;5131319;27;20035;-83
2022/08/05 02:34:06;;;;;;;0.10;0.10;;;;;;;21.71;57.10;101669.75;5134883;27;20095;-82
2022/08/05 02:36:35;;;;;;;0.10;0.10;;;;;;;21.64;56.92;101672.78;5133954;27;20475;-83
2022/08/05 02:39:04;;;;;;;0.10;0.10;;;;;;;21.52;57.87;101676.13;5132100;27;20028;-84
2022/08/05 02:41:32;;;;;;;0.17;0.17;;;;;;;21.48;58.36;101669.16;5120544;27;20020;-82
2022/08/05 02:44:01;;;;;;;0.20;0.20;;;;;;;21.49;58.48;101666.34;5118417;28;20024;-83
2022/08/05 02:46:28;;;;;;;0.30;0.30;;;;;;;21.49;57.42;101671.75;5119212;28;20051;-83
2022/08/05 02:48:56;;;;;;;0.10;0.10;;;;;;;21.46;58.47;101668.38;5118708;28;20509;-83
2022/08/05 02:51:24;;;;;;;0.30;0.30;;;;;;;21.48;58.19;101667.34;5118213;28;20032;-83
2022/08/05 02:53:51;;;;;;;0.00;0.00;;;;;;;21.45;58.62;101672.00;5118257;28;20023;-84
2022/08/05 02:56:18;;;;;;;0.00;0.00;;;;;;;21.45;58.61;101672.00;5118285;28;20435;-83
2022/08/05 02:58:45;;;;;;;0.20;0.20;;;;;;;21.46;58.26;101673.75;5117628;28;20044;-83
2022/08/05 03:01:22;;;;;;;0.10;0.10;;;;;;;21.49;57.96;101670.88;5117503;28;20028;-83
2022/08/05 03:03:51;;;;;;;0.10;0.10;;;;;;;21.43;57.87;101674.81;5119486;28;20016;-83
2022/08/05 03:06:19;;;;;;;0.20;0.20;;;;;;;21.49;57.68;101676.28;5118660;28;20367;-83
2022/08/05 03:08:47;;;;;;;0.10;0.10;;;;;;;21.46;57.54;101679.16;5118226;28;20066;-83
2022/08/05 03:11:22;;;;;;;0.20;0.20;;;;;;;21.47;57.56;101687.16;5117585;28;20032;-82
2022/08/05 03:13:49;;;;;;;0.10;0.10;;;;;;;21.38;57.57;101692.16;5118176;28;20019;-82
2022/08/05 03:16:15;;;;;;;0.00;0.00;;;;;;;21.38;58.07;101686.75;5118422;28;20039;-82
2022/08/05 03:18:41;;;;;;;0.10;0.10;;;;;;;21.30;58.44;101690.72;5117648;28;20062;-83
2022/08/05 03:21:08;;;;;;;0.20;0.20;;;;;;;21.28;58.50;101687.25;5116649;28;20027;-83
2022/08/05 03:23:35;;;;;;;0.10;0.10;;;;;;;21.23;58.79;101689.28;5118644;28;20088;-83
2022/08/05 03:26:02;;;;;;;0.10;0.10;;;;;;;21.20;58.65;101689.47;5119163;27;20487;-81
2022/08/05 03:28:29;;;;;;;0.10;0.10;;;;;;;21.15;58.52;101684.31;5118755;28;20032;-84
2022/08/05 03:30:58;;;;;;;0.60;0.60;;;;;;;21.08;58.88;101684.69;5117155;28;20037;-82
2022/08/05 03:33:26;;;;;;;0.00;0.00;;;;;;;21.08;58.63;101685.56;5117719;28;20027;-82
2022/08/05 03:35:54;;;;;;;0.08;0.08;;;;;;;21.00;58.70;101699.44;5117566;28;20023;-83
2022/08/05 03:38:21;;;;;;;0.00;0.00;;;;;;;21.00;58.72;101698.56;5119102;28;20031;-83
2022/08/05 03:40:48;;;;;;;0.10;0.10;;;;;;;21.00;58.72;101699.44;5118828;28;20114;-82
2022/08/05 03:43:15;;;;;;;0.10;0.10;;;;;;;21.01;58.71;101701.19;5121398;28;20027;-82
2022/08/05 03:45:42;;;;;;;0.20;0.20;;;;;;;20.90;58.72;101705.34;5120446;28;20024;-83
2022/08/05 03:48:08;;;;;;;0.10;0.10;;;;;;;20.93;58.67;101714.16;5119116;28;20027;-83
2022/08/05 03:50:59;;;;;;;0.00;0.00;;;;;;;20.93;58.70;101714.16;5118626;28;20039;-83
2022/08/05 03:53:34;;;;;;;0.05;0.05;;;;;;;20.89;58.57;101717.09;5117246;28;20024;-83
2022/08/05 03:56:06;;;;;;;0.10;0.10;;;;;;;20.90;58.48;101724.19;5119149;28;20027;-83
2022/08/05 03:58:35;;;;;;;0.10;0.10;;;;;;;20.75;58.64;101725.81;5118519;28;20047;-83
2022/08/05 04:01:03;;;;;;;0.17;0.17;;;;;;;20.83;58.52;101726.34;5117743;28;20031;-84
2022/08/05 04:03:34;;;;;;;0.10;0.10;;;;;;;20.84;58.53;101720.88;5118963;28;20088;-83
2022/08/05 04:06:02;;;;;;;0.10;0.10;;;;;;;20.85;58.63;101724.44;5119648;28;20028;-82
2022/08/05 04:08:29;;;;;;;0.10;0.10;;;;;;;20.80;58.61;101719.28;5119554;28;20034;-82
2022/08/05 04:10:56;;;;;;;0.10;0.10;;;;;;;20.78;58.84;101714.91;5118167;28;20081;-82
2022/08/05 04:13:24;;;;;;;0.20;0.20;;;;;;;20.71;58.79;101711.66;5119500;28;20106;-82
2022/08/05 04:15:50;;;;;;;0.10;0.10;;;;;;;20.69;58.66;101711.69;5118507;28;20024;-83
2022/08/05 04:18:16;;;;;;;0.08;0.08;;;;;;;20.69;58.67;101705.44;5117667;28;20057;-83
2022/08/05 04:20:43;;;;;;;0.10;0.10;;;;;;;20.66;59.15;101714.53;5116631;28;20504;-82
2022/08/05 04:23:10;;;;;;;0.10;0.10;;;;;;;20.60;59.25;101706.75;5117216;28;20046;-82
2022/08/05 04:25:36;;;;;;;14.10;0.85;;;;;;;20.57;58.92;101706.03;5117381;28;20055;-84
2022/08/05 04:28:02;;;;;;;0.10;0.10;;;;;;;20.56;59.46;101709.66;5118150;28;20475;-85
2022/08/05 04:30:28;;;;;;;0.10;0.10;;;;;;;20.54;58.91;101712.44;5118275;28;20487;-84
2022/08/05 04:32:54;;;;;;;0.00;0.00;;;;;;;20.48;59.38;101713.59;5117228;28;20043;-83
2022/08/05 04:35:20;;;;;;;1.45;0.90;;;;;;;20.48;59.12;101707.34;5118344;28;20059;-84
2022/08/05 04:37:46;;;;;;;0.10;0.10;;;;;;;20.47;59.27;101716.38;5118059;28;20024;-83
2022/08/05 04:40:12;;;;;;;0.10;0.10;;;;;;;20.46;59.45;101720.00;5119632;28;20049;-84
2022/08/05 04:42:38;;;;;;;0.00;0.00;;;;;;;20.43;59.43;101720.16;5118722;28;20042;-83
2022/08/05 04:45:05;;;;;;;0.57;0.43;;;;;;;20.40;59.34;101720.28;5119688;28;20043;-83
2022/08/05 04:47:31;;;;;;;0.10;0.10;;;;;;;20.35;59.53;101718.69;5118870;28;20102;-82
2022/08/05 04:49:57;;;;;;;0.32;0.32;;;;;;;20.30;59.58;101718.06;5118844;28;20488;-84
2022/08/05 04:52:23;;;;;;;0.10;0.10;;;;;;;20.29;59.48;101719.00;5118366;28;20039;-83
2022/08/05 04:54:49;;;;;;;0.00;0.00;;;;;;;20.28;59.36;101721.75;5119161;28;20031;-82
2022/08/05 04:57:15;;;;;;;0.25;0.25;;;;;;;20.24;59.36;101712.97;5118896;28;20491;-83
2022/08/05 04:59:41;;;;;;;0.10;0.10;;;;;;;20.26;59.96;101712.88;5119042;28;20024;-83
2022/08/05 05:02:08;;;;;;;0.10;0.10;;;;;;;20.26;59.54;101713.78;5117974;28;20116;-82
2022/08/05 05:04:34;;;;;;;0.00;0.00;;;;;;;20.22;59.73;101717.53;5118984;28;20175;-83
2022/08/05 05:07:00;;;;;;;0.30;0.30;;;;;;;20.27;59.49;101711.94;5121478;28;20057;-81
2022/08/05 05:09:26;;;;;;;0.10;0.10;;;;;;;20.25;59.42;101706.63;5119214;28;20057;-81
2022/08/05 05:11:52;;;;;;;0.10;0.10;;;;;;;20.21;59.69;101705.00;5116063;28;20027;-82
2022/08/05 05:14:18;;;;;;;0.10;0.10;;;;;;;20.25;59.32;101711.13;5116439;28;20088;-82
2022/08/05 05:16:44;;;;;;;0.10;0.10;;;;;;;20.29;59.01;101710.91;5116773;28;20107;-82
2022/08/05 05:19:10;;;;;;;0.10;0.10;;;;;;;20.28;59.37;101709.16;5114711;28;20023;-82
2022/08/05 05:21:36;;;;;;;0.08;0.08;;;;;;;20.29;59.05;101716.31;5115523;28;20499;-81
2022/08/05 05:24:02;;;;;;;0.00;0.00;;;;;;;20.27;59.03;101714.63;5115629;28;20036;-82
2022/08/05 05:26:28;;;;;;;0.10;0.10;;;;;;;20.33;58.89;101714.34;5117179;28;20039;-82
2022/08/05 05:28:55;;;;;;;0.20;0.20;;;;;;;20.35;58.68;101720.53;5115456;28;20031;-83
2022/08/05 05:31:21;;;;;;;0.10;0.10;;;;;;;20.35;58.74;101731.31;5114146;28;20031;-83
2022/08/05 05:33:47;;;;;;;0.10;0.10;;;;;;;20.33;58.74;101728.66;5114363;28;20030;-82
2022/08/05 05:36:13;;;;;;;0.55;0.55;;;;;;;20.32;58.70;101718.84;5116792;28;20027;-82
2022/08/05 05:38:39;;;;;;;0.10;0.10;;;;;;;20.41;58.48;101727.44;5116803;28;20057;-82
2022/08/05 05:41:05;;;;;;;0.10;0.10;;;;;;;20.40;58.37;101717.59;5096515;22;20049;-77
2022/08/05 05:43:31;;;;;;;0.10;0.10;;;;;;;20.42;58.28;101729.19;5050721;28;20411;-77
2022/08/05 05:45:57;;;;;;;0.10;0.10;;;;;;;20.45;58.15;101731.72;5052900;28;20037;-79
2022/08/05 05:48:23;;;;;;;0.00;0.00;;;;;;;20.52;58.09;101735.88;5051543;28;20028;-77
2022/08/05 05:50:51;;;;;;;0.00;0.00;;;;;;;20.52;58.26;101741.25;5049853;28;20043;-77
2022/08/05 05:53:17;;;;;;;0.10;0.10;;;;;;;20.52;58.07;101739.44;5050638;28;20029;-77
2022/08/05 05:55:44;;;;;;;0.00;0.00;;;;;;;20.53;58.18;101726.84;5054218;28;20033;-77
2022/08/05 05:58:10;;;;;;;0.10;0.10;;;;;;;20.51;57.90;101729.63;5054633;28;20467;-77
2022/08/05 06:00:36;;;;;;;0.35;0.35;;;;;;;20.57;58.05;101727.56;5054053;28;20441;-77
2022/08/05 06:03:02;;;;;;;0.10;0.10;;;;;;;20.60;57.82;101728.31;5053402;28;20029;-78
2022/08/05 06:05:28;;;;;;;0.10;0.10;;;;;;;20.56;58.01;101736.59;5053950;28;20080;-77
2022/08/05 06:07:54;;;;;;;0.77;0.77;;;;;;;20.58;57.65;101735.56;5054458;28;20032;-78
2022/08/05 06:10:20;;;;;;;0.10;0.10;;;;;;;20.58;57.71;101735.56;5053690;28;20029;-77
2022/08/05 06:12:46;;;;;;;0.10;0.10;;;;;;;20.70;57.59;101744.88;5053485;28;20089;-77
2022/08/05 06:15:16;;;;;;;0.10;0.10;;;;;;;20.66;57.29;101746.84;5054010;28;20040;-77
2022/08/05 06:17:42;;;;;;;0.35;0.35;;;;;;;20.66;57.18;101749.53;5058412;28;20028;-78
2022/08/05 06:20:08;;;;;;;0.10;0.10;;;;;;;20.79;57.06;101757.06;5058176;28;20018;-78
2022/08/05 06:22:34;;;;;;;0.03;0.03;;;;;;;20.81;57.07;101765.94;5057142;28;20029;-77
2022/08/05 06:25:02;;;;;;;0.00;0.00;;;;;;;20.72;56.55;101766.38;5057329;28;20052;-78
2022/08/05 06:27:28;;;;;;;0.03;0.03;;;;;;;20.82;56.86;101771.25;5058126;28;20449;-77
2022/08/05 06:29:54;;;;;;;1.05;0.98;;;;;;;20.83;56.69;101772.13;5058180;28;20051;-77
2022/08/05 06:32:20;;;;;;;0.10;0.10;;;;;;;20.91;56.41;101775.31;5056136;28;20068;-77
2022/08/05 06:34:47;;;;;;;0.10;0.10;;;;;;;21.02;56.41;101772.09;5039977;28;20085;-77
2022/08/05 06:37:13;;;;;;;0.10;0.10;;;;;;;21.03;56.74;101770.28;5057686;28;20371;-77
2022/08/05 06:39:39;;;;;;;0.10;0.10;;;;;;;21.04;56.49;101780.13;5057172;28;20111;-77
2022/08/05 06:42:06;;;;;;;0.00;0.00;;;;;;;20.98;56.19;101782.13;5056217;28;20041;-77
2022/08/05 06:44:32;;;;;;;0.47;0.47;;;;;;;21.04;55.86;101775.59;5057991;28;20032;-77
2022/08/05 06:46:58;;;;;;;0.10;0.10;;;;;;;21.15;55.90;101769.66;5057706;28;20033;-78
2022/08/05 06:49:25;;;;;;;0.10;0.10;;;;;;;21.16;55.55;101768.72;5057918;28;20033;-77
2022/08/05 06:51:51;;;;;;;0.10;0.10;;;;;;;21.19;54.49;101773.94;5056406;28;20032;-76
2022/08/05 06:54:17;;;;;;;0.10;0.10;;;;;;;21.29;54.49;101775.22;5057336;28;20044;-76
2022/08/05 06:56:43;;;;;;;0.00;0.00;;;;;;;21.38;54.47;101773.03;5056947;28;20097;-77
2022/08/05 06:59:13;;;;;;;0.10;0.10;;;;;;;21.37;53.92;101777.56;5057656;28;20086;-77
2022/08/05 07:01:39;;;;;;;0.10;0.10;;;;;;;21.45;53.16;101771.75;5056671;28;20029;-78
2022/08/05 07:04:05;;;;;;;0.10;0.10;;;;;;;21.46;52.82;101776.22;5057482;28;20044;-78
2022/08/05 07:06:31;;;;;;;0.10;0.10;;;;;;;21.54;52.70;101775.81;5057555;28;20033;-76
2022/08/05 07:08:58;;;;;;;0.10;0.10;;;;;;;21.57;52.89;101775.66;5057470;28;20118;-79
2022/08/05 07:11:26;;;;;;;0.10;0.10;;;;;;;21.63;52.22;101772.66;5058103;28;20100;-78
2022/08/05 07:16:58;;;;;;;0.10;0.10;;;;;;;21.77;52.30;101785.41;5058650;28;20401;-78
2022/08/05 07:19:26;;;;;;;0.10;0.10;;;;;;;21.81;52.61;101795.13;5058987;28;20025;-78
2022/08/05 07:21:52;;;;;;;0.20;0.20;;;;;;;21.82;52.25;101799.56;5058266;28;20035;-78
2022/08/05 07:24:18;;;;;;;0.10;0.10;;;;;;;21.83;51.17;101803.97;5058817;28;20037;-79
2022/08/05 07:26:46;;;;;;;0.10;0.10;;;;;;;21.93;50.83;101813.34;5058877;28;20028;-77
2022/08/05 07:29:12;;;;;;;0.00;0.00;;;;;;;22.05;51.29;101810.97;5058387;28;20612;-78
2022/08/05 07:31:39;;;;;;;0.10;0.10;;;;;;;22.13;51.00;101819.50;5058813;28;20037;-78
2022/08/05 07:34:06;;;;;;;0.15;0.15;;;;;;;22.16;50.64;101813.06;5058581;28;20137;-78
2022/08/05 07:36:32;;;;;;;0.10;0.10;;;;;;;22.18;48.92;101821.97;5058515;28;20037;-79
2022/08/05 07:39:02;;;;;;;0.10;0.10;;;;;;;22.32;48.28;101830.22;5059172;28;20102;-79
2022/08/05 07:41:29;;;;;;;0.10;0.10;;;;;;;22.38;48.83;101834.41;5058392;28;20530;-78
2022/08/05 07:43:56;;;;;;;0.10;0.10;;;;;;;22.55;48.29;101826.25;5059263;28;20033;-77
2022/08/05 07:46:23;;;;;;;0.10;0.10;;;;;;;22.65;46.86;101831.16;5059608;28;20044;-78
2022/08/05 07:48:49;;;;;;;0.10;0.10;;;;;;;22.84;46.51;101844.50;5058926;28;20028;-79
2022/08/05 07:51:15;;;;;;;0.10;0.10;;;;;;;23.09;46.92;101841.28;5058591;28;20036;-78
2022/08/05 07:53:42;;;;;;;0.10;0.10;;;;;;;23.19;44.85;101847.97;5059842;28;20032;-78
2022/08/05 07:56:08;;;;;;;0.00;0.00;;;;;;;23.40;44.76;101850.38;5061158;28;20070;-79
2022/08/05 07:58:34;;;;;;;0.20;0.20;;;;;;;23.60;45.59;101843.78;5059326;28;20032;-78
2022/08/05 08:01:00;;;;;;;0.03;0.03;;;;;;;23.75;44.40;101855.50;5059539;28;20052;-78
2022/08/05 08:03:26;;;;;;;0.10;0.10;;;;;;;23.89;45.00;101857.41;5059787;28;20040;-79
2022/08/05 08:05:52;;;;;;;0.10;0.10;;;;;;;23.96;43.91;101869.63;5060099;28;20167;-79
2022/08/05 08:08:19;;;;;;;0.10;0.10;;;;;;;24.02;44.00;101866.53;5058558;28;20214;-79
2022/08/05 08:10:45;;;;;;;0.10;0.10;;;;;;;24.18;44.41;101869.19;5058016;28;20064;-77
2022/08/05 08:13:11;;;;;;;0.10;0.10;;;;;;;24.32;45.35;101860.22;5057919;28;20051;-78
2022/08/05 08:15:37;;;;;;;0.10;0.10;;;;;;;24.43;45.03;101867.69;5057490;28;20032;-79
2022/08/05 08:18:04;;;;;;;0.10;0.10;;;;;;;24.49;44.83;101872.72;5057835;28;20402;-78
2022/08/05 08:20:30;;;;;;;0.40;0.22;;;;;;;24.57;44.94;101874.94;5058649;28;20032;-79
2022/08/05 08:22:58;;;;;;;0.10;0.10;;;;;;;24.59;45.01;101877.56;5057390;28;20032;-78
2022/08/05 08:25:27;;;;;;;2.35;2.15;;;;;;;24.59;44.92;101880.28;5057491;28;20021;-78
2022/08/05 08:27:54;;;;;;;1.90;1.08;;;;;;;24.76;45.22;101884.63;5058513;28;20032;-78
2022/08/05 08:30:20;;;;;;;0.95;0.85;;;;;;;24.82;44.30;101882.41;5058898;28;20032;-77
2022/08/05 08:32:47;;;;;;;0.00;0.00;;;;;;;24.88;44.33;101873.00;5057529;28;20097;-78
2022/08/05 08:35:13;;;;;;;6.18;2.78;;;;;;;24.78;44.10;101878.16;5058012;28;20653;-79
2022/08/05 08:37:39;;;;;;;23.77;1.75;;;;;;;24.80;43.63;101883.47;5057939;28;20134;-78
2022/08/05 08:40:06;;;;;;;0.10;0.10;;;;;;;24.85;43.72;101879.50;5057563;28;20040;-78
2022/08/05 08:42:32;;;;;;;0.10;0.10;;;;;;;24.90;43.83;101881.03;5057730;28;20051;-78
2022/08/05 08:45:00;;;;;;;0.52;0.52;;;;;;;25.00;43.60;101887.63;5057918;28;20091;-78
2022/08/05 08:47:27;;;;;;;0.10;0.10;;;;;;;24.93;43.31;101880.84;5056906;28;20023;-78
2022/08/05 08:49:55;;;;;;;0.10;0.10;;;;;;;24.97;42.87;101890.53;5058459;28;20033;-78
2022/08/05 08:52:28;;;;;;;0.10;0.10;;;;;;;24.93;41.98;101902.53;5056397;28;20041;-78
2022/08/05 08:54:54;;;;;;;0.10;0.10;;;;;;;24.96;41.92;101902.31;5057998;28;20037;-78
2022/08/05 08:57:21;;;;;;;0.10;0.10;;;;;;;24.87;42.44;101910.09;5058040;28;20108;-78
2022/08/05 08:59:48;;;;;;;0.25;0.20;;;;;;;24.79;42.00;101901.56;5057623;28;20021;-78
2022/08/05 09:02:17;;;;;;;0.00;0.00;;;;;;;24.78;42.96;101909.81;5057062;28;20021;-79
2022/08/05 09:04:45;;;;;;;0.00;0.00;;;;;;;24.67;43.56;101922.22;5057253;28;20509;-79
2022/08/05 09:07:11;;;;;;;0.10;0.10;;;;;;;24.38;40.76;101935.66;5058994;28;20028;-78
2022/08/05 09:09:38;;;;;;;0.00;0.00;;;;;;;24.19;40.95;101935.94;5057572;28;20104;-78
2022/08/05 09:12:07;;;;;;;0.03;0.03;;;;;;;24.11;41.85;101937.34;5057039;28;20074;-78
2022/08/05 09:14:34;;;;;;;0.00;0.00;;;;;;;23.89;41.00;101954.84;5056796;28;20029;-78
2022/08/05 09:17:02;;;;;;;0.10;0.10;;;;;;;23.74;40.99;101954.78;5056312;28;20029;-78
2022/08/05 09:19:28;;;;;;;0.20;0.20;;;;;;;23.52;40.84;101951.56;5057148;28;20032;-77
2022/08/05 09:21:55;;;;;;;0.05;0.05;;;;;;;23.40;41.19;101953.13;5056365;28;20482;-78
2022/08/05 09:24:21;;;;;;;0.10;0.10;;;;;;;23.34;41.68;101958.88;5058026;28;20028;-78
2022/08/05 09:26:51;;;;;;;0.10;0.10;;;;;;;23.29;41.59;101960.97;5057541;28;20743;-79
2022/08/05 09:29:17;;;;;;;0.10;0.10;;;;;;;23.19;42.20;101960.63;5057017;28;20037;-77
2022/08/05 09:31:59;;;;;;;0.40;0.40;;;;;;;23.12;41.90;101960.06;5056940;28;20033;-78
2022/08/05 09:34:26;;;;;;;;;;;;;;;23.16;41.45;101967.06;5059627;28;20059;-78
2022/08/05 09:36:52;;;;;;;0.10;0.10;;;;;;;23.06;41.45;101965.81;5058501;28;19909;-79
2022/08/05 09:39:18;;;;;;;0.10;0.10;;;;;;;23.20;41.90;101965.97;5057484;28;20047;-77
2022/08/05 09:42:02;;;;;;;0.10;0.10;;;;;;;23.29;41.74;101974.50;5056861;28;20403;-78
2022/08/05 09:49:56;;;;;;;0.10;0.10;;;;;;;23.36;40.01;101979.47;5113661;27;20399;-77
2022/08/05 09:52:37;;;;;;;0.08;0.08;;;;;;;23.56;41.45;101981.06;5113060;28;20067;-78
2022/08/05 09:57:44;;;;;;;0.00;0.00;;;;;;;23.42;40.74;101995.34;5074365;28;20149;-78
2022/08/05 10:00:23;;;;;;;0.05;0.05;;;;;;;23.35;39.59;101993.09;5073298;28;20065;-78
2022/08/05 10:02:53;;;;;;;0.00;0.00;;;;;;;23.21;38.54;101993.84;5073552;28;20228;-78
2022/08/05 10:05:24;;;;;;;0.10;0.10;;;;;;;23.22;39.50;102010.00;5073361;28;20036;-78
2022/08/05 10:10:35;;;;;;;0.10;0.10;;;;;;;23.21;39.42;102007.38;5079859;28;20390;-78
2022/08/05 10:13:02;;;;;;;0.00;0.00;;;;;;;23.26;39.54;102008.00;5080878;28;20048;-78
2022/08/05 10:18:13;;;;;;;0.10;0.10;;;;;;;23.35;39.53;102007.50;5140252;27;20387;-78
2022/08/05 10:20:50;;;;;;;0.10;0.10;;;;;;;23.44;39.88;102003.41;5139281;27;20036;-78
2022/08/05 10:23:20;;;;;;;0.10;0.10;;;;;;;23.50;39.44;102008.47;5140210;28;20027;-78
2022/08/05 10:25:46;;;;;;;0.10;0.10;;;;;;;23.30;38.19;102022.22;5139815;28;20024;-78
2022/08/05 10:28:13;;;;;;;0.10;0.10;;;;;;;23.50;38.60;102013.00;5139620;27;20087;-78
2022/08/05 10:30:39;;;;;;;0.10;0.10;;;;;;;23.50;38.53;102013.88;5140018;27;20493;-78
2022/08/05 10:33:05;;;;;;;0.10;0.10;;;;;;;23.66;39.69;102015.69;5139256;28;20032;-78
2022/08/05 10:35:32;;;;;;;0.43;0.43;;;;;;;23.73;38.27;102022.53;5139309;27;20034;-78
2022/08/05 10:38:00;;;;;;;0.05;0.05;;;;;;;23.85;39.81;102021.81;5140438;28;20023;-78
2022/08/05 10:40:43;;;;;;;2.08;0.68;;;;;;;23.90;39.23;102017.00;5139367;28;20034;-78
2022/08/05 10:45:58;;;;;;;0.10;0.10;;;;;;;23.83;39.40;102026.44;5079320;28;20429;-82
2022/08/05 10:48:43;;;;;;;0.00;0.00;;;;;;;23.97;39.65;102032.94;5080885;28;20063;-80
2022/08/05 10:51:14;;;;;;;0.10;0.10;;;;;;;23.98;39.86;102030.13;5079241;28;20084;-80
2022/08/05 10:53:52;;;;;;;0.00;0.00;;;;;;;24.01;39.68;102037.19;5079017;28;20025;-80
2022/08/05 10:56:23;;;;;;;0.10;0.10;;;;;;;23.89;39.20;102042.31;5080256;28;20032;-81
2022/08/05 10:59:03;;;;;;;0.10;0.10;;;;;;;23.84;39.95;102038.13;5080066;28;20450;-80
2022/08/05 11:01:34;;;;;;;0.00;0.00;;;;;;;23.80;40.03;102044.69;5079431;28;20389;-80
2022/08/05 11:04:05;;;;;;;0.08;0.08;;;;;;;23.84;40.72;102049.84;5080209;28;20020;-80
2022/08/05 11:06:32;;;;;;;0.10;0.10;;;;;;;23.78;40.15;102044.78;5079804;28;20559;-79
2022/08/05 11:09:19;;;;;;;0.10;0.10;;;;;;;23.88;39.81;102040.56;5080056;28;20028;-80
2022/08/05 11:11:48;;;;;;;0.10;0.10;;;;;;;23.72;39.54;102047.81;5079717;28;20093;-79
2022/08/05 11:14:23;;;;;;;0.05;0.05;;;;;;;23.97;39.40;102049.16;5078486;28;20028;-80
2022/08/05 11:20:04;;;;;;;0.10;0.10;;;;;;;23.93;37.71;102045.75;5073422;28;20386;-77
2022/08/05 11:22:47;;;;;;;0.00;0.00;;;;;;;23.90;36.02;102060.31;5073236;28;20036;-77
2022/08/05 11:25:36;;;;;;;0.20;0.20;;;;;;;24.14;37.54;102065.31;5073751;28;20515;-77
2022/08/05 11:36:18;;;;;;;0.10;0.10;;;;;;;24.62;35.98;102080.56;5080442;28;20382;-80
2022/08/05 11:41:26;;;;;;;0.10;0.10;;;;;;;24.75;37.21;102088.84;5100047;27;20137;-78
2022/08/05 11:44:05;;;;;;;0.10;0.10;;;;;;;24.72;35.97;102084.50;5099582;28;20020;-77
2022/08/05 11:46:36;;;;;;;0.10;0.10;;;;;;;24.78;36.21;102094.97;5100095;28;20107;-78
2022/08/05 11:49:03;;;;;;;0.00;0.00;;;;;;;24.82;37.08;102092.94;5099949;28;20051;-78
2022/08/05 11:51:30;;;;;;;0.10;0.10;;;;;;;24.96;36.83;102082.16;5098901;28;20098;-78
2022/08/05 11:53:57;;;;;;;0.10;0.10;;;;;;;25.07;34.96;102095.03;5100184;28;20103;-78
2022/08/05 11:56:23;;;;;;;0.10;0.10;;;;;;;25.19;33.54;102096.97;5099834;28;20032;-78
2022/08/05 11:58:51;;;;;;;0.10;0.10;;;;;;;25.18;34.36;102089.81;5100395;28;20449;-78
2022/08/05 12:01:21;;;;;;;0.10;0.10;;;;;;;25.13;34.64;102094.63;5099579;28;20030;-78
2022/08/05 12:03:51;;;;;;;0.00;0.00;;;;;;;25.23;35.12;102091.38;5099904;28;20032;-78
2022/08/05 12:06:20;;;;;;;0.05;0.05;;;;;;;25.55;34.80;102088.50;5099325;28;20025;-78
2022/08/05 12:08:51;;;;;;;0.08;0.08;;;;;;;25.83;34.21;102088.47;5100165;28;20563;-78
2022/08/05 12:11:22;;;;;;;0.00;0.00;;;;;;;26.08;34.78;102092.31;5099974;28;20046;-77
2022/08/05 12:14:06;;;;;;;0.10;0.10;;;;;;;26.30;34.35;102096.28;5099843;28;20036;-78
2022/08/05 12:16:34;;;;;;;0.10;0.10;;;;;;;26.15;33.82;102095.47;5100118;28;20025;-78
2022/08/05 12:19:01;;;;;;;0.10;0.10;;;;;;;26.07;33.73;102101.44;5099428;28;20025;-78
2022/08/05 12:21:30;;;;;;;0.10;0.10;;;;;;;25.96;33.29;102104.81;5098079;28;20418;-78